sensor_id;sensor_type;location;lat;lon;timestamp;P1;durP1;ratioP1;P2;durP2;ratioP2
5587;SDS011;2816;49.778;9.986;2024-03-06T00:01:11;19.77;;;14.40;;
5587;SDS011;2816;49.778;9.986;2024-03-06T00:03:38;24.03;;;13.90;;
5587;SDS011;2816;49.778;9.986;2024-03-06T00:06:05;20.40;;;13.73;;
5587;SDS011;2816;49.778;9.986;2024-03-06T00:08:32;18.97;;;13.53;;
5587;SDS011;2816;49.778;9.986;2024-03-06T00:10:58;19.57;;;13.73;;
5587;SDS011;2816;49.778;9.986;2024-03-06T00:13:25;19.90;;;13.93;;
5587;SDS011;2816;49.778;9.986;2024-03-06T00:15:52;19.80;;;14.67;;
5587;SDS011;2816;49.778;9.986;2024-03-06T00:18:20;22.70;;;15.20;;
5587;SDS011;2816;49.778;9.986;2024-03-06T00:20:47;23.90;;;15.83;;
5587;SDS011;2816;49.778;9.986;2024-03-06T00:23:14;24.23;;;13.73;;
5587;SDS011;2816;49.778;9.986;2024-03-06T00:25:42;26.13;;;14.80;;
5587;SDS011;2816;49.778;9.986;2024-03-06T00:28:09;20.10;;;13.60;;
5587;SDS011;2816;49.778;9.986;2024-03-06T00:30:35;20.50;;;13.80;;
5587;SDS011;2816;49.778;9.986;2024-03-06T00:33:02;20.33;;;13.90;;
5587;SDS011;2816;49.778;9.986;2024-03-06T00:35:34;21.40;;;14.10;;
5587;SDS011;2816;49.778;9.986;2024-03-06T00:38:00;19.37;;;13.37;;
5587;SDS011;2816;49.778;9.986;2024-03-06T00:40:27;24.50;;;14.90;;
5587;SDS011;2816;49.778;9.986;2024-03-06T00:42:55;23.53;;;14.23;;
5587;SDS011;2816;49.778;9.986;2024-03-06T00:45:23;19.50;;;14.10;;
5587;SDS011;2816;49.778;9.986;2024-03-06T00:47:49;22.00;;;13.80;;
5587;SDS011;2816;49.778;9.986;2024-03-06T00:50:16;20.50;;;13.40;;
5587;SDS011;2816;49.778;9.986;2024-03-06T00:52:47;22.10;;;14.20;;
5587;SDS011;2816;49.778;9.986;2024-03-06T00:55:14;22.70;;;15.10;;
5587;SDS011;2816;49.778;9.986;2024-03-06T00:57:42;20.33;;;13.33;;
5587;SDS011;2816;49.778;9.986;2024-03-06T01:00:09;22.50;;;15.03;;
5587;SDS011;2816;49.778;9.986;2024-03-06T01:02:37;24.57;;;15.40;;
5587;SDS011;2816;49.778;9.986;2024-03-06T01:05:04;19.83;;;14.20;;
5587;SDS011;2816;49.778;9.986;2024-03-06T01:07:32;21.20;;;13.53;;
5587;SDS011;2816;49.778;9.986;2024-03-06T01:10:01;25.30;;;15.40;;
5587;SDS011;2816;49.778;9.986;2024-03-06T01:12:28;24.07;;;16.03;;
5587;SDS011;2816;49.778;9.986;2024-03-06T01:14:55;27.03;;;16.23;;
5587;SDS011;2816;49.778;9.986;2024-03-06T01:17:22;26.03;;;16.27;;
5587;SDS011;2816;49.778;9.986;2024-03-06T01:19:49;25.90;;;16.20;;
5587;SDS011;2816;49.778;9.986;2024-03-06T01:22:16;24.50;;;15.90;;
5587;SDS011;2816;49.778;9.986;2024-03-06T01:24:44;20.43;;;14.13;;
5587;SDS011;2816;49.778;9.986;2024-03-06T01:27:15;22.60;;;14.70;;
5587;SDS011;2816;49.778;9.986;2024-03-06T01:29:42;23.43;;;15.00;;
5587;SDS011;2816;49.778;9.986;2024-03-06T01:32:09;22.73;;;14.57;;
5587;SDS011;2816;49.778;9.986;2024-03-06T01:34:36;19.37;;;13.03;;
5587;SDS011;2816;49.778;9.986;2024-03-06T01:37:03;22.53;;;14.93;;
5587;SDS011;2816;49.778;9.986;2024-03-06T01:39:30;23.40;;;15.10;;
5587;SDS011;2816;49.778;9.986;2024-03-06T01:41:56;18.57;;;13.50;;
5587;SDS011;2816;49.778;9.986;2024-03-06T01:44:25;16.80;;;12.97;;
5587;SDS011;2816;49.778;9.986;2024-03-06T01:46:51;20.43;;;13.63;;
5587;SDS011;2816;49.778;9.986;2024-03-06T01:49:18;21.90;;;14.03;;
5587;SDS011;2816;49.778;9.986;2024-03-06T01:51:48;22.70;;;14.00;;
5587;SDS011;2816;49.778;9.986;2024-03-06T01:54:16;24.30;;;15.20;;
5587;SDS011;2816;49.778;9.986;2024-03-06T01:56:45;21.00;;;14.27;;
5587;SDS011;2816;49.778;9.986;2024-03-06T01:59:12;20.40;;;13.63;;
5587;SDS011;2816;49.778;9.986;2024-03-06T02:01:42;22.60;;;14.00;;
5587;SDS011;2816;49.778;9.986;2024-03-06T02:04:10;18.63;;;13.50;;
5587;SDS011;2816;49.778;9.986;2024-03-06T02:06:38;22.43;;;13.60;;
5587;SDS011;2816;49.778;9.986;2024-03-06T02:09:06;21.47;;;14.20;;
5587;SDS011;2816;49.778;9.986;2024-03-06T02:11:34;20.73;;;14.07;;
5587;SDS011;2816;49.778;9.986;2024-03-06T02:14:02;22.67;;;15.50;;
5587;SDS011;2816;49.778;9.986;2024-03-06T02:16:29;23.40;;;15.60;;
5587;SDS011;2816;49.778;9.986;2024-03-06T02:18:57;22.33;;;15.27;;
5587;SDS011;2816;49.778;9.986;2024-03-06T02:21:25;23.27;;;14.90;;
5587;SDS011;2816;49.778;9.986;2024-03-06T02:23:54;22.93;;;14.67;;
5587;SDS011;2816;49.778;9.986;2024-03-06T02:26:21;23.97;;;16.20;;
5587;SDS011;2816;49.778;9.986;2024-03-06T02:28:49;25.80;;;16.37;;
5587;SDS011;2816;49.778;9.986;2024-03-06T02:31:16;23.37;;;15.87;;
5587;SDS011;2816;49.778;9.986;2024-03-06T02:33:45;23.20;;;15.63;;
5587;SDS011;2816;49.778;9.986;2024-03-06T02:36:13;41.03;;;17.27;;
5587;SDS011;2816;49.778;9.986;2024-03-06T02:38:42;24.17;;;16.30;;
5587;SDS011;2816;49.778;9.986;2024-03-06T02:41:09;25.80;;;17.17;;
5587;SDS011;2816;49.778;9.986;2024-03-06T02:43:36;27.70;;;17.93;;
5587;SDS011;2816;49.778;9.986;2024-03-06T02:46:03;26.13;;;16.80;;
5587;SDS011;2816;49.778;9.986;2024-03-06T02:48:30;25.17;;;16.00;;
5587;SDS011;2816;49.778;9.986;2024-03-06T02:50:57;23.10;;;14.90;;
5587;SDS011;2816;49.778;9.986;2024-03-06T02:53:24;28.10;;;14.40;;
5587;SDS011;2816;49.778;9.986;2024-03-06T02:55:54;24.00;;;16.30;;
5587;SDS011;2816;49.778;9.986;2024-03-06T02:58:21;23.30;;;14.60;;
5587;SDS011;2816;49.778;9.986;2024-03-06T03:00:47;20.87;;;14.60;;
5587;SDS011;2816;49.778;9.986;2024-03-06T03:03:14;21.23;;;14.20;;
5587;SDS011;2816;49.778;9.986;2024-03-06T03:05:41;25.10;;;16.33;;
5587;SDS011;2816;49.778;9.986;2024-03-06T03:08:08;24.93;;;15.77;;
5587;SDS011;2816;49.778;9.986;2024-03-06T03:10:37;20.63;;;13.83;;
5587;SDS011;2816;49.778;9.986;2024-03-06T03:13:05;23.73;;;14.43;;
5587;SDS011;2816;49.778;9.986;2024-03-06T03:15:32;23.20;;;14.77;;
5587;SDS011;2816;49.778;9.986;2024-03-06T03:17:59;23.53;;;15.00;;
5587;SDS011;2816;49.778;9.986;2024-03-06T03:20:26;20.80;;;14.33;;
5587;SDS011;2816;49.778;9.986;2024-03-06T03:22:53;21.00;;;13.63;;
5587;SDS011;2816;49.778;9.986;2024-03-06T03:25:20;25.33;;;14.77;;
5587;SDS011;2816;49.778;9.986;2024-03-06T03:27:47;22.77;;;14.40;;
5587;SDS011;2816;49.778;9.986;2024-03-06T03:30:17;21.73;;;15.10;;
5587;SDS011;2816;49.778;9.986;2024-03-06T03:32:46;22.97;;;14.63;;
5587;SDS011;2816;49.778;9.986;2024-03-06T03:35:13;21.50;;;14.03;;
5587;SDS011;2816;49.778;9.986;2024-03-06T03:37:42;22.57;;;15.47;;
5587;SDS011;2816;49.778;9.986;2024-03-06T03:40:09;22.57;;;15.53;;
5587;SDS011;2816;49.778;9.986;2024-03-06T03:42:37;21.00;;;14.57;;
5587;SDS011;2816;49.778;9.986;2024-03-06T03:45:04;22.43;;;14.43;;
5587;SDS011;2816;49.778;9.986;2024-03-06T03:47:33;24.23;;;13.67;;
5587;SDS011;2816;49.778;9.986;2024-03-06T03:49:59;22.57;;;14.70;;
5587;SDS011;2816;49.778;9.986;2024-03-06T03:52:26;21.33;;;15.40;;
5587;SDS011;2816;49.778;9.986;2024-03-06T03:54:53;29.50;;;16.20;;
5587;SDS011;2816;49.778;9.986;2024-03-06T03:57:20;23.10;;;16.30;;
5587;SDS011;2816;49.778;9.986;2024-03-06T03:59:47;22.83;;;15.10;;
5587;SDS011;2816;49.778;9.986;2024-03-06T04:02:14;24.53;;;15.47;;
5587;SDS011;2816;49.778;9.986;2024-03-06T04:04:42;27.63;;;15.63;;
5587;SDS011;2816;49.778;9.986;2024-03-06T04:07:09;22.83;;;14.90;;
5587;SDS011;2816;49.778;9.986;2024-03-06T04:09:36;23.17;;;15.70;;
5587;SDS011;2816;49.778;9.986;2024-03-06T04:12:04;22.50;;;14.63;;
5587;SDS011;2816;49.778;9.986;2024-03-06T04:14:31;23.23;;;15.70;;
5587;SDS011;2816;49.778;9.986;2024-03-06T04:16:58;23.80;;;15.57;;
5587;SDS011;2816;49.778;9.986;2024-03-06T04:19:25;26.50;;;16.60;;
5587;SDS011;2816;49.778;9.986;2024-03-06T04:21:53;27.63;;;16.20;;
5587;SDS011;2816;49.778;9.986;2024-03-06T04:24:20;24.60;;;16.30;;
5587;SDS011;2816;49.778;9.986;2024-03-06T04:26:47;26.40;;;16.87;;
5587;SDS011;2816;49.778;9.986;2024-03-06T04:29:14;25.30;;;16.70;;
5587;SDS011;2816;49.778;9.986;2024-03-06T04:31:41;29.10;;;17.17;;
5587;SDS011;2816;49.778;9.986;2024-03-06T04:34:07;27.20;;;16.73;;
5587;SDS011;2816;49.778;9.986;2024-03-06T04:36:34;30.10;;;16.07;;
5587;SDS011;2816;49.778;9.986;2024-03-06T04:39:02;28.10;;;17.50;;
5587;SDS011;2816;49.778;9.986;2024-03-06T04:41:32;26.80;;;17.80;;
5587;SDS011;2816;49.778;9.986;2024-03-06T04:43:59;29.30;;;17.30;;
5587;SDS011;2816;49.778;9.986;2024-03-06T04:46:26;23.30;;;16.13;;
5587;SDS011;2816;49.778;9.986;2024-03-06T04:48:53;30.57;;;17.73;;
5587;SDS011;2816;49.778;9.986;2024-03-06T04:51:20;32.53;;;18.27;;
5587;SDS011;2816;49.778;9.986;2024-03-06T04:53:47;28.80;;;17.73;;
5587;SDS011;2816;49.778;9.986;2024-03-06T04:56:16;30.30;;;17.47;;
5587;SDS011;2816;49.778;9.986;2024-03-06T04:58:44;29.53;;;16.03;;
5587;SDS011;2816;49.778;9.986;2024-03-06T05:01:11;25.30;;;16.40;;
5587;SDS011;2816;49.778;9.986;2024-03-06T05:03:38;30.97;;;17.73;;
5587;SDS011;2816;49.778;9.986;2024-03-06T05:06:05;39.20;;;17.77;;
5587;SDS011;2816;49.778;9.986;2024-03-06T05:08:32;27.37;;;16.50;;
5587;SDS011;2816;49.778;9.986;2024-03-06T05:11:00;28.70;;;17.50;;
5587;SDS011;2816;49.778;9.986;2024-03-06T05:13:29;30.30;;;17.87;;
5587;SDS011;2816;49.778;9.986;2024-03-06T05:15:57;32.80;;;21.03;;
5587;SDS011;2816;49.778;9.986;2024-03-06T05:18:24;24.50;;;16.10;;
5587;SDS011;2816;49.778;9.986;2024-03-06T05:20:51;33.30;;;20.43;;
5587;SDS011;2816;49.778;9.986;2024-03-06T05:23:19;35.67;;;19.60;;
5587;SDS011;2816;49.778;9.986;2024-03-06T05:25:46;39.17;;;21.30;;
5587;SDS011;2816;49.778;9.986;2024-03-06T05:28:13;37.53;;;20.50;;
5587;SDS011;2816;49.778;9.986;2024-03-06T05:30:41;34.70;;;20.07;;
5587;SDS011;2816;49.778;9.986;2024-03-06T05:33:08;36.83;;;20.70;;
5587;SDS011;2816;49.778;9.986;2024-03-06T05:35:35;42.23;;;20.53;;
5587;SDS011;2816;49.778;9.986;2024-03-06T05:38:02;44.33;;;22.67;;
5587;SDS011;2816;49.778;9.986;2024-03-06T05:40:29;40.20;;;22.97;;
5587;SDS011;2816;49.778;9.986;2024-03-06T05:43:00;43.53;;;22.83;;
5587;SDS011;2816;49.778;9.986;2024-03-06T05:45:27;39.70;;;19.40;;
5587;SDS011;2816;49.778;9.986;2024-03-06T05:47:55;35.60;;;20.00;;
5587;SDS011;2816;49.778;9.986;2024-03-06T05:50:22;32.73;;;18.43;;
5587;SDS011;2816;49.778;9.986;2024-03-06T05:52:50;32.80;;;19.90;;
5587;SDS011;2816;49.778;9.986;2024-03-06T05:55:17;36.17;;;20.80;;
5587;SDS011;2816;49.778;9.986;2024-03-06T05:57:44;33.77;;;19.03;;
5587;SDS011;2816;49.778;9.986;2024-03-06T06:00:12;31.40;;;17.53;;
5587;SDS011;2816;49.778;9.986;2024-03-06T06:02:40;34.20;;;19.77;;
5587;SDS011;2816;49.778;9.986;2024-03-06T06:05:08;35.37;;;21.67;;
5587;SDS011;2816;49.778;9.986;2024-03-06T06:07:35;44.77;;;24.20;;
5587;SDS011;2816;49.778;9.986;2024-03-06T06:10:03;37.73;;;21.57;;
5587;SDS011;2816;49.778;9.986;2024-03-06T06:12:33;49.37;;;23.10;;
5587;SDS011;2816;49.778;9.986;2024-03-06T06:15:01;54.30;;;25.37;;
5587;SDS011;2816;49.778;9.986;2024-03-06T06:17:28;36.10;;;20.83;;
5587;SDS011;2816;49.778;9.986;2024-03-06T06:19:55;34.30;;;19.20;;
5587;SDS011;2816;49.778;9.986;2024-03-06T06:22:24;46.87;;;23.57;;
5587;SDS011;2816;49.778;9.986;2024-03-06T06:24:53;48.80;;;24.40;;
5587;SDS011;2816;49.778;9.986;2024-03-06T06:27:21;42.00;;;21.93;;
5587;SDS011;2816;49.778;9.986;2024-03-06T06:29:50;44.30;;;23.07;;
5587;SDS011;2816;49.778;9.986;2024-03-06T06:32:20;47.93;;;23.10;;
5587;SDS011;2816;49.778;9.986;2024-03-06T06:34:48;50.53;;;24.60;;
5587;SDS011;2816;49.778;9.986;2024-03-06T06:37:15;39.10;;;22.10;;
5587;SDS011;2816;49.778;9.986;2024-03-06T06:39:44;35.57;;;20.43;;
5587;SDS011;2816;49.778;9.986;2024-03-06T06:42:11;39.50;;;19.20;;
5587;SDS011;2816;49.778;9.986;2024-03-06T06:44:38;41.27;;;22.10;;
5587;SDS011;2816;49.778;9.986;2024-03-06T06:47:07;38.07;;;19.97;;
5587;SDS011;2816;49.778;9.986;2024-03-06T06:49:33;39.13;;;20.70;;
5587;SDS011;2816;49.778;9.986;2024-03-06T06:52:00;34.63;;;20.60;;
5587;SDS011;2816;49.778;9.986;2024-03-06T06:54:28;34.43;;;20.37;;
5587;SDS011;2816;49.778;9.986;2024-03-06T06:56:57;42.63;;;19.60;;
5587;SDS011;2816;49.778;9.986;2024-03-06T06:59:24;45.03;;;22.07;;
5587;SDS011;2816;49.778;9.986;2024-03-06T07:01:52;34.50;;;19.50;;
5587;SDS011;2816;49.778;9.986;2024-03-06T07:04:20;33.63;;;18.87;;
5587;SDS011;2816;49.778;9.986;2024-03-06T07:06:49;34.23;;;19.23;;
5587;SDS011;2816;49.778;9.986;2024-03-06T07:09:16;68.63;;;27.40;;
5587;SDS011;2816;49.778;9.986;2024-03-06T07:11:43;59.23;;;26.73;;
5587;SDS011;2816;49.778;9.986;2024-03-06T07:14:12;54.57;;;26.80;;
5587;SDS011;2816;49.778;9.986;2024-03-06T07:16:41;54.73;;;22.83;;
5587;SDS011;2816;49.778;9.986;2024-03-06T07:19:08;50.37;;;25.50;;
5587;SDS011;2816;49.778;9.986;2024-03-06T07:21:35;45.10;;;21.83;;
5587;SDS011;2816;49.778;9.986;2024-03-06T07:24:03;46.57;;;22.00;;
5587;SDS011;2816;49.778;9.986;2024-03-06T07:26:31;62.37;;;28.73;;
5587;SDS011;2816;49.778;9.986;2024-03-06T07:28:58;37.43;;;21.97;;
5587;SDS011;2816;49.778;9.986;2024-03-06T07:31:27;42.87;;;22.10;;
5587;SDS011;2816;49.778;9.986;2024-03-06T07:33:54;37.23;;;19.97;;
5587;SDS011;2816;49.778;9.986;2024-03-06T07:36:20;45.73;;;21.67;;
5587;SDS011;2816;49.778;9.986;2024-03-06T07:38:48;36.20;;;19.53;;
5587;SDS011;2816;49.778;9.986;2024-03-06T07:41:14;37.60;;;19.90;;
5587;SDS011;2816;49.778;9.986;2024-03-06T07:43:41;40.17;;;19.53;;
5587;SDS011;2816;49.778;9.986;2024-03-06T07:46:08;34.47;;;19.13;;
5587;SDS011;2816;49.778;9.986;2024-03-06T07:48:41;36.90;;;20.70;;
5587;SDS011;2816;49.778;9.986;2024-03-06T07:51:09;44.17;;;20.80;;
5587;SDS011;2816;49.778;9.986;2024-03-06T07:53:36;38.57;;;20.83;;
5587;SDS011;2816;49.778;9.986;2024-03-06T07:56:03;33.70;;;19.27;;
5587;SDS011;2816;49.778;9.986;2024-03-06T07:58:30;33.10;;;19.07;;
5587;SDS011;2816;49.778;9.986;2024-03-06T08:00:58;37.40;;;20.60;;
5587;SDS011;2816;49.778;9.986;2024-03-06T08:03:25;37.10;;;19.50;;
5587;SDS011;2816;49.778;9.986;2024-03-06T08:05:53;34.57;;;18.63;;
5587;SDS011;2816;49.778;9.986;2024-03-06T08:08:20;37.50;;;20.03;;
5587;SDS011;2816;49.778;9.986;2024-03-06T08:10:47;40.30;;;19.90;;
5587;SDS011;2816;49.778;9.986;2024-03-06T08:13:15;39.43;;;19.60;;
5587;SDS011;2816;49.778;9.986;2024-03-06T08:15:44;33.57;;;19.07;;
5587;SDS011;2816;49.778;9.986;2024-03-06T08:18:11;38.20;;;20.63;;
5587;SDS011;2816;49.778;9.986;2024-03-06T08:20:38;34.53;;;18.93;;
5587;SDS011;2816;49.778;9.986;2024-03-06T08:23:06;36.30;;;18.80;;
5587;SDS011;2816;49.778;9.986;2024-03-06T08:25:34;37.23;;;20.00;;
5587;SDS011;2816;49.778;9.986;2024-03-06T08:28:01;38.00;;;18.50;;
5587;SDS011;2816;49.778;9.986;2024-03-06T08:30:30;37.83;;;19.07;;
5587;SDS011;2816;49.778;9.986;2024-03-06T08:32:57;34.20;;;18.50;;
5587;SDS011;2816;49.778;9.986;2024-03-06T08:35:25;34.13;;;18.00;;
5587;SDS011;2816;49.778;9.986;2024-03-06T08:37:52;39.17;;;19.37;;
5587;SDS011;2816;49.778;9.986;2024-03-06T08:40:20;35.17;;;18.43;;
5587;SDS011;2816;49.778;9.986;2024-03-06T08:42:48;31.23;;;17.93;;
5587;SDS011;2816;49.778;9.986;2024-03-06T08:45:15;32.57;;;17.50;;
5587;SDS011;2816;49.778;9.986;2024-03-06T08:47:42;35.13;;;16.53;;
5587;SDS011;2816;49.778;9.986;2024-03-06T08:50:10;28.77;;;16.70;;
5587;SDS011;2816;49.778;9.986;2024-03-06T08:52:37;33.33;;;17.33;;
5587;SDS011;2816;49.778;9.986;2024-03-06T08:55:05;29.90;;;16.17;;
5587;SDS011;2816;49.778;9.986;2024-03-06T08:57:35;29.10;;;15.70;;
5587;SDS011;2816;49.778;9.986;2024-03-06T09:00:03;27.33;;;16.87;;
5587;SDS011;2816;49.778;9.986;2024-03-06T09:02:33;28.50;;;15.13;;
5587;SDS011;2816;49.778;9.986;2024-03-06T09:05:00;30.17;;;16.13;;
5587;SDS011;2816;49.778;9.986;2024-03-06T09:07:29;33.00;;;15.27;;
5587;SDS011;2816;49.778;9.986;2024-03-06T09:09:56;29.43;;;17.40;;
5587;SDS011;2816;49.778;9.986;2024-03-06T09:12:23;32.27;;;16.73;;
5587;SDS011;2816;49.778;9.986;2024-03-06T09:14:51;33.73;;;16.87;;
5587;SDS011;2816;49.778;9.986;2024-03-06T09:17:18;36.37;;;17.23;;
5587;SDS011;2816;49.778;9.986;2024-03-06T09:19:45;37.57;;;18.00;;
5587;SDS011;2816;49.778;9.986;2024-03-06T09:22:12;33.80;;;15.70;;
5587;SDS011;2816;49.778;9.986;2024-03-06T09:24:39;35.40;;;17.63;;
5587;SDS011;2816;49.778;9.986;2024-03-06T09:27:06;34.10;;;17.10;;
5587;SDS011;2816;49.778;9.986;2024-03-06T09:29:33;31.53;;;17.40;;
5587;SDS011;2816;49.778;9.986;2024-03-06T09:32:01;30.43;;;17.60;;
5587;SDS011;2816;49.778;9.986;2024-03-06T09:34:28;35.30;;;17.20;;
5587;SDS011;2816;49.778;9.986;2024-03-06T09:36:55;28.47;;;15.70;;
5587;SDS011;2816;49.778;9.986;2024-03-06T09:39:21;34.47;;;18.43;;
5587;SDS011;2816;49.778;9.986;2024-03-06T09:41:49;25.47;;;15.03;;
5587;SDS011;2816;49.778;9.986;2024-03-06T09:44:16;31.30;;;17.00;;
5587;SDS011;2816;49.778;9.986;2024-03-06T09:46:43;33.93;;;17.47;;
5587;SDS011;2816;49.778;9.986;2024-03-06T09:49:12;35.53;;;17.93;;
5587;SDS011;2816;49.778;9.986;2024-03-06T09:51:41;35.20;;;17.87;;
5587;SDS011;2816;49.778;9.986;2024-03-06T09:54:10;36.20;;;17.60;;
5587;SDS011;2816;49.778;9.986;2024-03-06T09:56:40;32.10;;;17.53;;
5587;SDS011;2816;49.778;9.986;2024-03-06T09:59:08;41.20;;;20.40;;
5587;SDS011;2816;49.778;9.986;2024-03-06T10:01:35;40.77;;;17.60;;
5587;SDS011;2816;49.778;9.986;2024-03-06T10:04:18;34.47;;;17.83;;
5587;SDS011;2816;49.778;9.986;2024-03-06T10:06:46;39.50;;;18.97;;
5587;SDS011;2816;49.778;9.986;2024-03-06T10:09:15;37.23;;;18.27;;
5587;SDS011;2816;49.778;9.986;2024-03-06T10:11:43;32.83;;;16.17;;
5587;SDS011;2816;49.778;9.986;2024-03-06T10:14:10;30.97;;;17.03;;
5587;SDS011;2816;49.778;9.986;2024-03-06T10:16:51;29.33;;;16.80;;
5587;SDS011;2816;49.778;9.986;2024-03-06T10:19:20;37.10;;;18.20;;
5587;SDS011;2816;49.778;9.986;2024-03-06T10:21:48;31.93;;;17.93;;
5587;SDS011;2816;49.778;9.986;2024-03-06T10:24:17;36.37;;;18.53;;
5587;SDS011;2816;49.778;9.986;2024-03-06T10:26:46;28.87;;;15.40;;
5587;SDS011;2816;49.778;9.986;2024-03-06T10:29:16;30.40;;;16.03;;
5587;SDS011;2816;49.778;9.986;2024-03-06T10:31:50;33.43;;;16.77;;
5587;SDS011;2816;49.778;9.986;2024-03-06T10:34:21;49.77;;;21.93;;
5587;SDS011;2816;49.778;9.986;2024-03-06T10:36:50;33.63;;;17.90;;
5587;SDS011;2816;49.778;9.986;2024-03-06T10:39:20;41.87;;;19.73;;
5587;SDS011;2816;49.778;9.986;2024-03-06T10:41:49;33.00;;;16.50;;
5587;SDS011;2816;49.778;9.986;2024-03-06T10:44:18;39.50;;;17.13;;
5587;SDS011;2816;49.778;9.986;2024-03-06T10:46:48;31.73;;;14.80;;
5587;SDS011;2816;49.778;9.986;2024-03-06T10:49:27;33.27;;;16.60;;
5587;SDS011;2816;49.778;9.986;2024-03-06T10:51:57;31.80;;;17.10;;
5587;SDS011;2816;49.778;9.986;2024-03-06T10:54:26;30.73;;;16.13;;
5587;SDS011;2816;49.778;9.986;2024-03-06T10:56:55;30.73;;;15.97;;
5587;SDS011;2816;49.778;9.986;2024-03-06T10:59:23;29.83;;;16.80;;
5587;SDS011;2816;49.778;9.986;2024-03-06T11:01:53;30.20;;;17.40;;
5587;SDS011;2816;49.778;9.986;2024-03-06T11:04:22;32.13;;;17.30;;
5587;SDS011;2816;49.778;9.986;2024-03-06T11:06:52;31.50;;;17.30;;
5587;SDS011;2816;49.778;9.986;2024-03-06T11:09:19;32.37;;;17.47;;
5587;SDS011;2816;49.778;9.986;2024-03-06T11:11:47;33.67;;;17.13;;
5587;SDS011;2816;49.778;9.986;2024-03-06T11:14:14;34.73;;;18.30;;
5587;SDS011;2816;49.778;9.986;2024-03-06T11:17:03;25.30;;;15.00;;
5587;SDS011;2816;49.778;9.986;2024-03-06T11:19:31;31.43;;;17.93;;
5587;SDS011;2816;49.778;9.986;2024-03-06T11:22:20;34.23;;;17.67;;
5587;SDS011;2816;49.778;9.986;2024-03-06T11:28:29;32.43;;;18.30;;
5587;SDS011;2816;49.778;9.986;2024-03-06T11:30:57;32.30;;;17.27;;
5587;SDS011;2816;49.778;9.986;2024-03-06T11:33:33;29.23;;;17.20;;
5587;SDS011;2816;49.778;9.986;2024-03-06T11:36:15;25.83;;;16.10;;
5587;SDS011;2816;49.778;9.986;2024-03-06T11:38:48;27.87;;;16.40;;
5587;SDS011;2816;49.778;9.986;2024-03-06T11:41:18;34.77;;;16.03;;
5587;SDS011;2816;49.778;9.986;2024-03-06T11:43:45;29.30;;;15.40;;
5587;SDS011;2816;49.778;9.986;2024-03-06T11:46:15;31.63;;;17.47;;
5587;SDS011;2816;49.778;9.986;2024-03-06T11:48:43;30.60;;;16.93;;
5587;SDS011;2816;49.778;9.986;2024-03-06T11:51:17;29.87;;;16.77;;
5587;SDS011;2816;49.778;9.986;2024-03-06T11:53:44;29.70;;;17.10;;
5587;SDS011;2816;49.778;9.986;2024-03-06T11:56:13;30.30;;;18.40;;
5587;SDS011;2816;49.778;9.986;2024-03-06T11:58:40;33.17;;;17.67;;
5587;SDS011;2816;49.778;9.986;2024-03-06T12:01:07;29.67;;;17.40;;
5587;SDS011;2816;49.778;9.986;2024-03-06T12:03:33;29.87;;;17.40;;
5587;SDS011;2816;49.778;9.986;2024-03-06T12:06:00;35.73;;;16.93;;
5587;SDS011;2816;49.778;9.986;2024-03-06T12:08:28;26.23;;;16.70;;
5587;SDS011;2816;49.778;9.986;2024-03-06T12:10:55;28.47;;;16.87;;
5587;SDS011;2816;49.778;9.986;2024-03-06T12:13:24;30.00;;;15.27;;
5587;SDS011;2816;49.778;9.986;2024-03-06T12:15:51;27.83;;;17.03;;
5587;SDS011;2816;49.778;9.986;2024-03-06T12:18:18;29.50;;;17.63;;
5587;SDS011;2816;49.778;9.986;2024-03-06T12:20:45;29.90;;;16.53;;
5587;SDS011;2816;49.778;9.986;2024-03-06T12:23:19;33.43;;;17.83;;
5587;SDS011;2816;49.778;9.986;2024-03-06T12:25:48;27.37;;;15.60;;
5587;SDS011;2816;49.778;9.986;2024-03-06T12:28:15;29.80;;;17.13;;
5587;SDS011;2816;49.778;9.986;2024-03-06T12:30:44;26.43;;;16.67;;
5587;SDS011;2816;49.778;9.986;2024-03-06T12:33:15;29.53;;;16.63;;
5587;SDS011;2816;49.778;9.986;2024-03-06T12:35:43;35.70;;;17.00;;
5587;SDS011;2816;49.778;9.986;2024-03-06T12:38:13;27.87;;;16.90;;
5587;SDS011;2816;49.778;9.986;2024-03-06T12:40:41;27.90;;;16.17;;
5587;SDS011;2816;49.778;9.986;2024-03-06T12:43:08;22.40;;;14.10;;
5587;SDS011;2816;49.778;9.986;2024-03-06T12:45:36;30.03;;;17.20;;
5587;SDS011;2816;49.778;9.986;2024-03-06T12:48:06;24.33;;;14.20;;
5587;SDS011;2816;49.778;9.986;2024-03-06T12:50:34;28.00;;;16.23;;
5587;SDS011;2816;49.778;9.986;2024-03-06T12:53:01;30.53;;;17.17;;
5587;SDS011;2816;49.778;9.986;2024-03-06T12:55:29;29.50;;;17.30;;
5587;SDS011;2816;49.778;9.986;2024-03-06T12:57:57;39.10;;;16.50;;
5587;SDS011;2816;49.778;9.986;2024-03-06T13:00:23;25.90;;;15.33;;
5587;SDS011;2816;49.778;9.986;2024-03-06T13:02:50;29.30;;;16.50;;
5587;SDS011;2816;49.778;9.986;2024-03-06T13:05:18;27.30;;;16.33;;
5587;SDS011;2816;49.778;9.986;2024-03-06T13:07:45;28.83;;;16.67;;
5587;SDS011;2816;49.778;9.986;2024-03-06T13:10:12;29.37;;;16.60;;
5587;SDS011;2816;49.778;9.986;2024-03-06T13:12:39;25.13;;;15.40;;
5587;SDS011;2816;49.778;9.986;2024-03-06T13:15:05;25.23;;;14.80;;
5587;SDS011;2816;49.778;9.986;2024-03-06T13:17:33;29.00;;;16.43;;
5587;SDS011;2816;49.778;9.986;2024-03-06T13:20:00;26.50;;;15.37;;
5587;SDS011;2816;49.778;9.986;2024-03-06T13:22:29;25.37;;;15.07;;
5587;SDS011;2816;49.778;9.986;2024-03-06T13:24:56;25.50;;;15.50;;
5587;SDS011;2816;49.778;9.986;2024-03-06T13:27:23;27.70;;;15.70;;
5587;SDS011;2816;49.778;9.986;2024-03-06T13:29:50;27.20;;;16.43;;
5587;SDS011;2816;49.778;9.986;2024-03-06T13:32:17;27.20;;;16.00;;
5587;SDS011;2816;49.778;9.986;2024-03-06T13:34:44;33.43;;;17.07;;
5587;SDS011;2816;49.778;9.986;2024-03-06T13:37:11;23.97;;;16.03;;
5587;SDS011;2816;49.778;9.986;2024-03-06T13:39:40;27.87;;;17.50;;
5587;SDS011;2816;49.778;9.986;2024-03-06T13:42:07;22.67;;;14.03;;
5587;SDS011;2816;49.778;9.986;2024-03-06T13:44:35;26.00;;;15.67;;
5587;SDS011;2816;49.778;9.986;2024-03-06T13:47:02;24.10;;;14.37;;
5587;SDS011;2816;49.778;9.986;2024-03-06T13:49:39;33.10;;;15.93;;
5587;SDS011;2816;49.778;9.986;2024-03-06T13:52:08;23.40;;;14.97;;
5587;SDS011;2816;49.778;9.986;2024-03-06T13:54:39;23.37;;;13.80;;
5587;SDS011;2816;49.778;9.986;2024-03-06T13:57:08;23.20;;;14.70;;
5587;SDS011;2816;49.778;9.986;2024-03-06T13:59:35;26.17;;;15.40;;
5587;SDS011;2816;49.778;9.986;2024-03-06T14:02:02;29.13;;;16.63;;
5587;SDS011;2816;49.778;9.986;2024-03-06T14:04:30;24.40;;;14.70;;
5587;SDS011;2816;49.778;9.986;2024-03-06T14:06:57;23.20;;;13.03;;
5587;SDS011;2816;49.778;9.986;2024-03-06T14:09:24;24.57;;;14.60;;
5587;SDS011;2816;49.778;9.986;2024-03-06T14:11:53;19.93;;;12.73;;
5587;SDS011;2816;49.778;9.986;2024-03-06T14:14:20;22.97;;;12.97;;
5587;SDS011;2816;49.778;9.986;2024-03-06T14:16:47;23.70;;;13.27;;
5587;SDS011;2816;49.778;9.986;2024-03-06T14:19:14;17.20;;;11.80;;
5587;SDS011;2816;49.778;9.986;2024-03-06T14:21:41;23.00;;;13.20;;
5587;SDS011;2816;49.778;9.986;2024-03-06T14:24:07;20.87;;;12.17;;
5587;SDS011;2816;49.778;9.986;2024-03-06T14:26:35;20.33;;;12.40;;
5587;SDS011;2816;49.778;9.986;2024-03-06T14:29:03;28.80;;;13.13;;
5587;SDS011;2816;49.778;9.986;2024-03-06T14:31:34;20.90;;;13.43;;
5587;SDS011;2816;49.778;9.986;2024-03-06T14:34:01;20.07;;;12.10;;
5587;SDS011;2816;49.778;9.986;2024-03-06T14:36:28;16.13;;;10.67;;
5587;SDS011;2816;49.778;9.986;2024-03-06T14:38:55;17.73;;;11.03;;
5587;SDS011;2816;49.778;9.986;2024-03-06T14:41:22;18.00;;;11.80;;
5587;SDS011;2816;49.778;9.986;2024-03-06T14:43:49;18.20;;;10.50;;
5587;SDS011;2816;49.778;9.986;2024-03-06T14:46:17;18.60;;;10.13;;
5587;SDS011;2816;49.778;9.986;2024-03-06T14:48:44;21.07;;;11.93;;
5587;SDS011;2816;49.778;9.986;2024-03-06T14:51:11;17.07;;;11.40;;
5587;SDS011;2816;49.778;9.986;2024-03-06T14:53:38;20.00;;;11.63;;
5587;SDS011;2816;49.778;9.986;2024-03-06T14:56:05;21.33;;;11.10;;